sensor_id;sensor_type;location;lat;lon;timestamp;pressure;altitude;pressure_sealevel;temperature;humidity
6136;BME280;24008;42.664;23.372;2023-04-01T00:01:16;93889.94;;;10.19;65.67
6136;BME280;24008;42.664;23.372;2023-04-01T00:03:43;93892.47;;;10.10;65.86
6136;BME280;24008;42.664;23.372;2023-04-01T00:06:12;93893.91;;;10.05;66.77
6136;BME280;24008;42.664;23.372;2023-04-01T00:08:40;93903.94;;;9.98;67.26
6136;BME280;24008;42.664;23.372;2023-04-01T00:11:06;93906.00;;;9.95;67.11
6136;BME280;24008;42.664;23.372;2023-04-01T00:13:35;93902.97;;;9.91;67.58
6136;BME280;24008;42.664;23.372;2023-04-01T00:16:02;93902.34;;;9.89;67.46
6136;BME280;24008;42.664;23.372;2023-04-01T00:18:30;93781.00;;;9.12;66.80
6136;BME280;24008;42.664;23.372;2023-04-01T00:20:57;93902.34;;;9.89;66.40
6136;BME280;24008;42.664;23.372;2023-04-01T00:23:23;93902.50;;;9.88;66.98
6136;BME280;24008;42.664;23.372;2023-04-01T00:25:50;93904.56;;;9.92;66.26
6136;BME280;24008;42.664;23.372;2023-04-01T00:28:18;93924.50;;;9.89;66.74
6136;BME280;24008;42.664;23.372;2023-04-01T00:30:47;93876.44;;;9.68;66.00
6136;BME280;24008;42.664;23.372;2023-04-01T00:33:15;93832.56;;;9.48;66.61
6136;BME280;24008;42.664;23.372;2023-04-01T00:35:42;93915.41;;;9.86;66.80
6136;BME280;24008;42.664;23.372;2023-04-01T00:38:08;93901.06;;;9.85;66.89
6136;BME280;24008;42.664;23.372;2023-04-01T00:40:38;93896.25;;;9.82;67.25
6136;BME280;24008;42.664;23.372;2023-04-01T00:43:11;93891.78;;;9.84;67.43
6136;BME280;24008;42.664;23.372;2023-04-01T00:45:40;93862.56;;;9.62;67.06
6136;BME280;24008;42.664;23.372;2023-04-01T00:48:10;93658.03;;;8.44;67.62
6136;BME280;24008;42.664;23.372;2023-04-01T00:50:40;93880.28;;;9.80;68.17
6136;BME280;24008;42.664;23.372;2023-04-01T00:53:10;93858.63;;;9.76;69.55
6136;BME280;24008;42.664;23.372;2023-04-01T00:55:40;93858.13;;;9.72;69.23
6136;BME280;24008;42.664;23.372;2023-04-01T00:58:13;93860.53;;;9.74;69.56
6136;BME280;24008;42.664;23.372;2023-04-01T01:00:41;93799.56;;;9.38;69.53
6136;BME280;24008;42.664;23.372;2023-04-01T01:03:09;93851.91;;;9.75;70.19
6136;BME280;24008;42.664;23.372;2023-04-01T01:05:52;93793.16;;;9.34;69.56
6136;BME280;24008;42.664;23.372;2023-04-01T01:08:31;93840.09;;;9.66;70.18
6136;BME280;24008;42.664;23.372;2023-04-01T01:11:05;93785.50;;;9.26;69.80
6136;BME280;24008;42.664;23.372;2023-04-01T01:13:36;93802.56;;;9.34;70.10
6136;BME280;24008;42.664;23.372;2023-04-01T01:16:12;93713.34;;;8.68;70.21
6136;BME280;24008;42.664;23.372;2023-04-01T01:18:49;93824.13;;;9.48;70.63
6136;BME280;24008;42.664;23.372;2023-04-01T01:21:42;93779.09;;;9.22;70.10
6136;BME280;24008;42.664;23.372;2023-04-01T01:27:11;93826.06;;;9.54;69.18
6136;BME280;24008;42.664;23.372;2023-04-01T01:30:05;93641.81;;;8.45;68.23
6136;BME280;24008;42.664;23.372;2023-04-01T01:35:49;93424.84;;;7.42;66.36
6136;BME280;24008;42.664;23.372;2023-04-01T01:38:19;93353.44;;;6.77;64.94
6136;BME280;24008;42.664;23.372;2023-04-01T01:40:50;93794.16;;;10.15;64.05
6136;BME280;24008;42.664;23.372;2023-04-01T01:43:22;93716.34;;;9.78;62.67
6136;BME280;24008;42.664;23.372;2023-04-01T01:45:52;93710.28;;;9.55;61.23
6136;BME280;24008;42.664;23.372;2023-04-01T01:48:21;93801.22;;;10.37;62.30
6136;BME280;24008;42.664;23.372;2023-04-01T01:50:50;93805.69;;;10.35;62.47
6136;BME280;24008;42.664;23.372;2023-04-01T01:53:17;93796.44;;;10.34;63.16
6136;BME280;24008;42.664;23.372;2023-04-01T01:55:45;93789.06;;;10.31;62.80
6136;BME280;24008;42.664;23.372;2023-04-01T01:58:16;93547.31;;;8.88;61.12
6136;BME280;24008;42.664;23.372;2023-04-01T02:00:48;93775.69;;;10.37;61.26
6136;BME280;24008;42.664;23.372;2023-04-01T02:03:17;93783.63;;;10.42;61.08
6136;BME280;24008;42.664;23.372;2023-04-01T02:05:46;93754.16;;;10.23;61.74
6136;BME280;24008;42.664;23.372;2023-04-01T02:08:16;93735.16;;;10.26;60.55
6136;BME280;24008;42.664;23.372;2023-04-01T02:10:54;93780.09;;;10.59;59.80
6136;BME280;24008;42.664;23.372;2023-04-01T02:13:26;93707.50;;;10.37;58.25
6136;BME280;24008;42.664;23.372;2023-04-01T02:15:59;93773.31;;;10.82;57.91
6136;BME280;24008;42.664;23.372;2023-04-01T02:18:29;93706.00;;;10.51;58.70
6136;BME280;24008;42.664;23.372;2023-04-01T02:20:57;93761.44;;;10.90;58.81
6136;BME280;24008;42.664;23.372;2023-04-01T02:23:27;93742.00;;;10.80;59.00
6136;BME280;24008;42.664;23.372;2023-04-01T02:25:54;93686.38;;;10.52;59.69
6136;BME280;24008;42.664;23.372;2023-04-01T02:28:22;93694.03;;;10.60;57.61
6136;BME280;24008;42.664;23.372;2023-04-01T02:30:51;93743.53;;;10.98;58.24
6136;BME280;24008;42.664;23.372;2023-04-01T02:33:19;93744.34;;;10.98;58.19
6136;BME280;24008;42.664;23.372;2023-04-01T02:35:47;93753.41;;;11.01;57.47
6136;BME280;24008;42.664;23.372;2023-04-01T02:38:14;93759.66;;;10.98;59.51
6136;BME280;24008;42.664;23.372;2023-04-01T02:40:46;93687.19;;;10.44;60.26
6136;BME280;24008;42.664;23.372;2023-04-01T02:43:13;93758.59;;;10.85;61.21
6136;BME280;24008;42.664;23.372;2023-04-01T02:45:41;93771.22;;;10.78;60.80
6136;BME280;24008;42.664;23.372;2023-04-01T02:48:08;93780.81;;;10.76;61.65
6136;BME280;24008;42.664;23.372;2023-04-01T02:50:35;93772.88;;;10.71;61.84
6136;BME280;24008;42.664;23.372;2023-04-01T02:53:02;93765.53;;;10.68;62.06
6136;BME280;24008;42.664;23.372;2023-04-01T02:55:31;93775.91;;;10.66;61.85
6136;BME280;24008;42.664;23.372;2023-04-01T02:57:59;93721.09;;;10.30;62.66
6136;BME280;24008;42.664;23.372;2023-04-01T03:00:26;93774.66;;;10.62;63.43
6136;BME280;24008;42.664;23.372;2023-04-01T03:02:53;93787.75;;;10.51;64.31
6136;BME280;24008;42.664;23.372;2023-04-01T03:05:20;93786.50;;;10.47;64.54
6136;BME280;24008;42.664;23.372;2023-04-01T03:07:47;93790.19;;;10.36;65.53
6136;BME280;24008;42.664;23.372;2023-04-01T03:10:14;93791.00;;;10.29;65.74
6136;BME280;24008;42.664;23.372;2023-04-01T03:12:41;93793.25;;;10.24;66.68
6136;BME280;24008;42.664;23.372;2023-04-01T03:15:10;93789.41;;;10.20;67.64
6136;BME280;24008;42.664;23.372;2023-04-01T03:17:38;93787.16;;;10.17;68.09
6136;BME280;24008;42.664;23.372;2023-04-01T03:20:06;93747.63;;;9.88;68.35
6136;BME280;24008;42.664;23.372;2023-04-01T03:22:33;93673.31;;;9.34;68.31
6136;BME280;24008;42.664;23.372;2023-04-01T03:25:00;93810.78;;;10.10;68.89
6136;BME280;24008;42.664;23.372;2023-04-01T03:27:27;93745.53;;;9.75;68.94
6136;BME280;24008;42.664;23.372;2023-04-01T03:29:54;93828.97;;;10.07;68.34
6136;BME280;24008;42.664;23.372;2023-04-01T03:32:22;93540.19;;;8.25;69.30
6136;BME280;24008;42.664;23.372;2023-04-01T03:34:49;93813.31;;;10.02;69.57
6136;BME280;24008;42.664;23.372;2023-04-01T03:37:15;93800.75;;;10.01;68.81
6136;BME280;24008;42.664;23.372;2023-04-01T03:39:42;93803.09;;;10.02;68.68
6136;BME280;24008;42.664;23.372;2023-04-01T03:42:09;93709.66;;;9.36;69.04
6136;BME280;24008;42.664;23.372;2023-04-01T03:44:36;93742.50;;;9.64;69.59
6136;BME280;24008;42.664;23.372;2023-04-01T03:47:03;93781.13;;;10.01;69.85
6136;BME280;24008;42.664;23.372;2023-04-01T03:49:31;93730.56;;;9.72;69.54
6136;BME280;24008;42.664;23.372;2023-04-01T03:51:59;93762.59;;;9.99;68.36
6136;BME280;24008;42.664;23.372;2023-04-01T03:54:26;93699.78;;;9.66;69.00
6136;BME280;24008;42.664;23.372;2023-04-01T03:56:52;93413.22;;;7.98;68.78
6136;BME280;24008;42.664;23.372;2023-04-01T03:59:39;93663.44;;;9.64;68.74
6136;BME280;24008;42.664;23.372;2023-04-01T04:02:05;93659.91;;;9.73;69.24
6136;BME280;24008;42.664;23.372;2023-04-01T04:04:33;93720.78;;;10.08;68.00
6136;BME280;24008;42.664;23.372;2023-04-01T04:07:00;93664.03;;;9.82;67.29
6136;BME280;24008;42.664;23.372;2023-04-01T04:09:29;93640.47;;;9.64;66.30
6136;BME280;24008;42.664;23.372;2023-04-01T04:11:56;93571.34;;;9.26;66.86
6136;BME280;24008;42.664;23.372;2023-04-01T04:14:23;93598.25;;;9.53;64.90
6136;BME280;24008;42.664;23.372;2023-04-01T04:16:50;93690.16;;;10.25;63.19
6136;BME280;24008;42.664;23.372;2023-04-01T04:19:17;93672.06;;;10.34;62.10
6136;BME280;24008;42.664;23.372;2023-04-01T04:21:45;93671.72;;;10.45;61.92
6136;BME280;24008;42.664;23.372;2023-04-01T04:24:12;93670.59;;;10.48;60.94
6136;BME280;24008;42.664;23.372;2023-04-01T04:26:38;93637.13;;;10.27;61.49
6136;BME280;24008;42.664;23.372;2023-04-01T04:29:05;93667.88;;;10.50;61.36
6136;BME280;24008;42.664;23.372;2023-04-01T04:31:32;93670.25;;;10.51;61.48
6136;BME280;24008;42.664;23.372;2023-04-01T04:33:59;93608.28;;;10.18;61.51
6136;BME280;24008;42.664;23.372;2023-04-01T04:36:27;93653.00;;;10.53;61.72
6136;BME280;24008;42.664;23.372;2023-04-01T04:38:55;93589.47;;;10.19;61.90
6136;BME280;24008;42.664;23.372;2023-04-01T04:41:23;93494.44;;;9.62;61.45
6136;BME280;24008;42.664;23.372;2023-04-01T04:43:53;93505.72;;;9.67;61.97
6136;BME280;24008;42.664;23.372;2023-04-01T04:46:20;93400.59;;;9.02;62.14
6136;BME280;24008;42.664;23.372;2023-04-01T04:48:47;93632.56;;;10.53;61.40
6136;BME280;24008;42.664;23.372;2023-04-01T04:51:14;93620.41;;;10.55;61.43
6136;BME280;24008;42.664;23.372;2023-04-01T04:53:42;93618.03;;;10.54;61.39
6136;BME280;24008;42.664;23.372;2023-04-01T04:56:10;93493.09;;;9.74;62.01
6136;BME280;24008;42.664;23.372;2023-04-01T04:58:38;93352.56;;;8.91;62.10
6136;BME280;24008;42.664;23.372;2023-04-01T05:01:07;93607.81;;;10.54;61.90
6136;BME280;24008;42.664;23.372;2023-04-01T05:03:34;93611.22;;;10.46;62.95
6136;BME280;24008;42.664;23.372;2023-04-01T05:06:00;93506.34;;;9.69;64.79
6136;BME280;24008;42.664;23.372;2023-04-01T05:08:28;93609.34;;;10.32;65.13
6136;BME280;24008;42.664;23.372;2023-04-01T05:10:57;93610.03;;;10.26;65.28
6136;BME280;24008;42.664;23.372;2023-04-01T05:13:25;93533.59;;;9.77;64.70
6136;BME280;24008;42.664;23.372;2023-04-01T05:15:52;93605.25;;;10.23;64.71
6136;BME280;24008;42.664;23.372;2023-04-01T05:18:21;93570.81;;;10.02;64.01
6136;BME280;24008;42.664;23.372;2023-04-01T05:20:48;93604.41;;;10.30;64.03
6136;BME280;24008;42.664;23.372;2023-04-01T05:23:16;93441.28;;;9.34;64.79
6136;BME280;24008;42.664;23.372;2023-04-01T05:25:43;93385.63;;;8.99;65.14
6136;BME280;24008;42.664;23.372;2023-04-01T05:28:11;93580.94;;;10.27;64.98
6136;BME280;24008;42.664;23.372;2023-04-01T05:30:41;93527.34;;;9.88;64.89
6136;BME280;24008;42.664;23.372;2023-04-01T05:33:08;93580.59;;;10.38;64.41
6136;BME280;24008;42.664;23.372;2023-04-01T05:35:35;93513.38;;;10.06;60.47
6136;BME280;24008;42.664;23.372;2023-04-01T05:38:03;93446.59;;;9.64;61.08
6136;BME280;24008;42.664;23.372;2023-04-01T05:40:29;93575.84;;;10.58;61.10
6136;BME280;24008;42.664;23.372;2023-04-01T05:42:56;93563.31;;;10.71;60.48
6136;BME280;24008;42.664;23.372;2023-04-01T05:45:23;93572.44;;;10.65;60.76
6136;BME280;24008;42.664;23.372;2023-04-01T05:47:51;93601.03;;;10.69;60.87
6136;BME280;24008;42.664;23.372;2023-04-01T05:50:19;93534.34;;;10.33;61.95
6136;BME280;24008;42.664;23.372;2023-04-01T05:52:45;93579.13;;;10.74;61.95
6136;BME280;24008;42.664;23.372;2023-04-01T05:55:12;93528.44;;;10.55;61.92
6136;BME280;24008;42.664;23.372;2023-04-01T05:57:39;93479.47;;;11.56;59.50
6136;BME280;24008;42.664;23.372;2023-04-01T06:00:07;93544.56;;;13.55;54.79
6136;BME280;24008;42.664;23.372;2023-04-01T06:02:34;93540.19;;;14.72;51.69
6136;BME280;24008;42.664;23.372;2023-04-01T06:05:20;93405.22;;;15.01;48.36
6136;BME280;24008;42.664;23.372;2023-04-01T06:07:47;93558.13;;;17.13;46.30
6136;BME280;24008;42.664;23.372;2023-04-01T06:12:51;93504.78;;;16.24;44.20
6136;BME280;24008;42.664;23.372;2023-04-01T06:15:25;93552.63;;;16.07;44.56
6136;BME280;24008;42.664;23.372;2023-04-01T06:21:22;93562.34;;;14.86;48.62
6136;BME280;24008;42.664;23.372;2023-04-01T06:24:29;93563.84;;;14.54;49.24
6136;BME280;24008;42.664;23.372;2023-04-01T06:27:06;93544.44;;;13.97;50.69
6136;BME280;24008;42.664;23.372;2023-04-01T06:29:50;93561.88;;;13.74;51.07
6136;BME280;24008;42.664;23.372;2023-04-01T06:32:30;93560.28;;;13.73;51.39
6136;BME280;24008;42.664;23.372;2023-04-01T06:35:19;93496.91;;;13.39;51.63
6136;BME280;24008;42.664;23.372;2023-04-01T06:38:12;93542.41;;;13.93;51.45
6136;BME280;24008;42.664;23.372;2023-04-01T06:41:12;93548.91;;;13.89;52.93
6136;BME280;24008;42.664;23.372;2023-04-01T06:43:52;93489.66;;;13.21;54.07
6136;BME280;24008;42.664;23.372;2023-04-01T06:46:30;93384.06;;;12.62;54.72
6136;BME280;24008;42.664;23.372;2023-04-01T06:49:25;93497.03;;;13.10;55.95
6136;BME280;24008;42.664;23.372;2023-04-01T06:52:00;93179.94;;;10.64;55.98
6136;BME280;24008;42.664;23.372;2023-04-01T06:54:33;93033.97;;;9.81;56.70
6136;BME280;24008;42.664;23.372;2023-04-01T06:57:05;93412.63;;;12.16;57.73
6136;BME280;24008;42.664;23.372;2023-04-01T06:59:37;93504.28;;;12.78;58.18
6136;BME280;24008;42.664;23.372;2023-04-01T07:02:11;93383.41;;;11.75;58.25
6136;BME280;24008;42.664;23.372;2023-04-01T07:04:44;93393.25;;;12.07;59.28
6136;BME280;24008;42.664;23.372;2023-04-01T07:07:17;93321.34;;;11.51;59.26
6136;BME280;24008;42.664;23.372;2023-04-01T07:09:51;93329.69;;;11.60;59.44
6136;BME280;24008;42.664;23.372;2023-04-01T07:12:42;93508.38;;;12.73;59.34
6136;BME280;24008;42.664;23.372;2023-04-01T07:15:17;93476.16;;;12.63;60.21
6136;BME280;24008;42.664;23.372;2023-04-01T07:17:47;93503.84;;;12.75;59.70
6136;BME280;24008;42.664;23.372;2023-04-01T07:20:20;93370.44;;;12.12;59.49
6136;BME280;24008;42.664;23.372;2023-04-01T07:22:51;93380.16;;;12.45;59.43
6136;BME280;24008;42.664;23.372;2023-04-01T07:25:24;93495.75;;;13.20;58.67
6136;BME280;24008;42.664;23.372;2023-04-01T07:27:53;93335.47;;;12.26;59.08
6136;BME280;24008;42.664;23.372;2023-04-01T07:30:24;93495.31;;;13.38;59.58
6136;BME280;24008;42.664;23.372;2023-04-01T07:32:57;93416.22;;;12.92;58.53
6136;BME280;24008;42.664;23.372;2023-04-01T07:35:30;93494.25;;;13.60;58.38
6136;BME280;24008;42.664;23.372;2023-04-01T07:38:11;93425.44;;;13.43;57.86
6136;BME280;24008;42.664;23.372;2023-04-01T07:40:48;93428.16;;;13.76;58.59
6136;BME280;24008;42.664;23.372;2023-04-01T07:43:32;93375.47;;;13.39;58.04
6136;BME280;24008;42.664;23.372;2023-04-01T07:46:08;93317.09;;;13.13;57.29
6136;BME280;24008;42.664;23.372;2023-04-01T07:48:43;93481.91;;;14.38;56.51
6136;BME280;24008;42.664;23.372;2023-04-01T07:51:15;93429.63;;;13.98;56.75
6136;BME280;24008;42.664;23.372;2023-04-01T07:53:47;93480.53;;;14.35;56.29
6136;BME280;24008;42.664;23.372;2023-04-01T07:56:23;92804.59;;;10.07;56.27
6136;BME280;24008;42.664;23.372;2023-04-01T07:59:00;93426.47;;;13.96;55.86
6136;BME280;24008;42.664;23.372;2023-04-01T08:01:32;93406.03;;;13.75;56.28
6136;BME280;24008;42.664;23.372;2023-04-01T08:04:21;93471.34;;;14.13;56.34
6136;BME280;24008;42.664;23.372;2023-04-01T08:06:56;93482.66;;;14.12;56.25
6136;BME280;24008;42.664;23.372;2023-04-01T08:09:32;93282.63;;;12.81;57.23
6136;BME280;24008;42.664;23.372;2023-04-01T08:12:16;93469.63;;;14.20;56.69
6136;BME280;24008;42.664;23.372;2023-04-01T08:14:56;93333.09;;;13.49;56.63
6136;BME280;24008;42.664;23.372;2023-04-01T08:17:31;93453.47;;;14.39;56.81
6136;BME280;24008;42.664;23.372;2023-04-01T08:20:18;93384.56;;;13.95;55.78
6136;BME280;24008;42.664;23.372;2023-04-01T08:22:53;93070.53;;;11.94;55.85
6136;BME280;24008;42.664;23.372;2023-04-01T08:25:26;93392.09;;;13.97;55.46
6136;BME280;24008;42.664;23.372;2023-04-01T08:27:59;92961.66;;;11.64;55.44
6136;BME280;24008;42.664;23.372;2023-04-01T08:30:36;93039.19;;;12.40;55.13
6136;BME280;24008;42.664;23.372;2023-04-01T08:33:11;92991.59;;;12.11;54.58
6136;BME280;24008;42.664;23.372;2023-04-01T08:35:44;93420.69;;;15.07;54.43
6136;BME280;24008;42.664;23.372;2023-04-01T08:38:17;93218.81;;;13.99;53.73
6136;BME280;24008;42.664;23.372;2023-04-01T08:40:58;93012.66;;;12.67;52.35
6136;BME280;24008;42.664;23.372;2023-04-01T08:46:56;93382.34;;;15.64;50.03
6136;BME280;24008;42.664;23.372;2023-04-01T08:49:50;93385.25;;;15.80;49.96
6136;BME280;24008;42.664;23.372;2023-04-01T08:52:33;93374.09;;;15.93;49.75
6136;BME280;24008;42.664;23.372;2023-04-01T08:55:25;93366.50;;;16.05;49.61
6136;BME280;24008;42.664;23.372;2023-04-01T09:00:48;93276.88;;;15.31;49.12
6136;BME280;24008;42.664;23.372;2023-04-01T09:06:31;93385.28;;;16.43;47.80
6136;BME280;24008;42.664;23.372;2023-04-01T09:12:23;93258.19;;;15.87;46.73
6136;BME280;24008;42.664;23.372;2023-04-01T09:15:30;93380.94;;;16.69;47.48
6136;BME280;24008;42.664;23.372;2023-04-01T09:21:22;93369.81;;;16.75;47.64
6136;BME280;24008;42.664;23.372;2023-04-01T09:24:14;93378.28;;;16.82;47.61
6136;BME280;24008;42.664;23.372;2023-04-01T09:27:02;93192.25;;;15.79;47.07
6136;BME280;24008;42.664;23.372;2023-04-01T09:29:54;93365.53;;;16.87;45.27
6136;BME280;24008;42.664;23.372;2023-04-01T09:32:45;93369.16;;;16.79;44.02
6136;BME280;24008;42.664;23.372;2023-04-01T09:35:24;93068.41;;;14.99;43.96
6136;BME280;24008;42.664;23.372;2023-04-01T09:38:03;93363.66;;;16.76;43.53
6136;BME280;24008;42.664;23.372;2023-04-01T09:40:48;93062.94;;;14.89;43.70
6136;BME280;24008;42.664;23.372;2023-04-01T09:43:26;93251.31;;;16.05;43.87
6136;BME280;24008;42.664;23.372;2023-04-01T09:46:19;93270.59;;;16.21;43.39
6136;BME280;24008;42.664;23.372;2023-04-01T09:49:18;92964.03;;;14.22;43.47
6136;BME280;24008;42.664;23.372;2023-04-01T09:51:57;93228.03;;;15.94;43.37
6136;BME280;24008;42.664;23.372;2023-04-01T09:54:42;93118.97;;;15.19;43.63
6136;BME280;24008;42.664;23.372;2023-04-01T10:00:53;92646.31;;;12.14;43.62
6136;BME280;24008;42.664;23.372;2023-04-01T10:16:33;93297.41;;;16.70;44.43
6136;BME280;24008;42.664;23.372;2023-04-01T10:19:16;93293.22;;;16.44;45.12
6136;BME280;24008;42.664;23.372;2023-04-01T10:21:59;93221.50;;;15.91;45.63
6136;BME280;24008;42.664;23.372;2023-04-01T10:25:15;93278.78;;;16.18;45.99
6136;BME280;24008;42.664;23.372;2023-04-01T10:37:15;93180.44;;;15.33;46.87
6136;BME280;24008;42.664;23.372;2023-04-01T10:43:19;93193.06;;;15.41;46.72
6136;BME280;24008;42.664;23.372;2023-04-01T10:46:16;93170.19;;;15.27;46.93
6136;BME280;24008;42.664;23.372;2023-04-01T10:49:06;93253.69;;;15.75;47.48
6136;BME280;24008;42.664;23.372;2023-04-01T10:52:03;93148.25;;;15.18;47.24
6136;BME280;24008;42.664;23.372;2023-04-01T10:54:49;93244.38;;;15.74;46.91
6136;BME280;24008;42.664;23.372;2023-04-01T10:57:47;93247.38;;;15.71;46.88
6136;BME280;24008;42.664;23.372;2023-04-01T11:00:32;93209.06;;;15.57;46.51
6136;BME280;24008;42.664;23.372;2023-04-01T11:06:27;93230.69;;;15.80;46.45
6136;BME280;24008;42.664;23.372;2023-04-01T11:09:19;93230.09;;;15.78;46.49
6136;BME280;24008;42.664;23.372;2023-04-01T11:12:23;93114.72;;;14.99;46.27
6136;BME280;24008;42.664;23.372;2023-04-01T11:15:22;93230.31;;;15.77;45.29
6136;BME280;24008;42.664;23.372;2023-04-01T11:18:09;93228.47;;;15.84;44.16
6136;BME280;24008;42.664;23.372;2023-04-01T11:24:21;93230.25;;;15.83;45.80
6136;BME280;24008;42.664;23.372;2023-04-01T11:27:04;93018.44;;;14.51;44.53
6136;BME280;24008;42.664;23.372;2023-04-01T11:29:52;93245.72;;;15.83;45.25
6136;BME280;24008;42.664;23.372;2023-04-01T11:32:39;93257.38;;;15.86;44.44
6136;BME280;24008;42.664;23.372;2023-04-01T11:35:32;93154.81;;;15.13;44.00
6136;BME280;24008;42.664;23.372;2023-04-01T11:38:11;93265.41;;;16.03;43.01
6136;BME280;24008;42.664;23.372;2023-04-01T11:41:15;93153.22;;;15.19;44.84
6136;BME280;24008;42.664;23.372;2023-04-01T11:43:57;93335.88;;;15.83;46.88
6136;BME280;24008;42.664;23.372;2023-04-01T11:46:39;93347.34;;;15.43;50.78
6136;BME280;24008;42.664;23.372;2023-04-01T11:49:20;93379.94;;;14.78;53.99
6136;BME280;24008;42.664;23.372;2023-04-01T11:52:02;93341.88;;;14.01;58.42
6136;BME280;24008;42.664;23.372;2023-04-01T11:54:49;93420.66;;;13.81;61.51
6136;BME280;24008;42.664;23.372;2023-04-01T12:00:50;93383.88;;;11.78;79.77
6136;BME280;24008;42.664;23.372;2023-04-01T12:03:37;93463.03;;;11.65;85.55
6136;BME280;24008;42.664;23.372;2023-04-01T12:06:19;93326.75;;;10.24;89.38
6136;BME280;24008;42.664;23.372;2023-04-01T12:08:54;93485.94;;;11.14;93.39
6136;BME280;24008;42.664;23.372;2023-04-01T12:11:29;93424.75;;;10.83;95.15
6136;BME280;24008;42.664;23.372;2023-04-01T12:14:07;93454.28;;;10.86;98.99
6136;BME280;24008;42.664;23.372;2023-04-01T12:16:43;93478.47;;;10.75;100.00
6136;BME280;24008;42.664;23.372;2023-04-01T12:19:19;93439.50;;;10.59;100.00
6136;BME280;24008;42.664;23.372;2023-04-01T12:22:03;93468.88;;;10.77;100.00
6136;BME280;24008;42.664;23.372;2023-04-01T12:24:48;93365.09;;;10.16;100.00
6136;BME280;24008;42.664;23.372;2023-04-01T12:27:39;93447.03;;;10.90;100.00
6136;BME280;24008;42.664;23.372;2023-04-01T12:30:32;93474.31;;;11.27;100.00
6136;BME280;24008;42.664;23.372;2023-04-01T12:33:15;93416.13;;;11.14;100.00
6136;BME280;24008;42.664;23.372;2023-04-01T12:35:57;93463.31;;;11.55;100.00
6136;BME280;24008;42.664;23.372;2023-04-01T12:38:32;93436.94;;;11.40;100.00
6136;BME280;24008;42.664;23.372;2023-04-01T12:41:09;93429.00;;;11.06;100.00
6136;BME280;24008;42.664;23.372;2023-04-01T12:44:02;93479.44;;;11.27;100.00
6136;BME280;24008;42.664;23.372;2023-04-01T12:46:42;93471.47;;;10.92;100.00
6136;BME280;24008;42.664;23.372;2023-04-01T12:49:36;93489.66;;;10.97;100.00
6136;BME280;24008;42.664;23.372;2023-04-01T12:52:10;93480.00;;;10.85;100.00
6136;BME280;24008;42.664;23.372;2023-04-01T12:55:35;93405.75;;;10.26;100.00
6136;BME280;24008;42.664;23.372;2023-04-01T12:58:30;93483.03;;;10.65;100.00
6136;BME280;24008;42.664;23.372;2023-04-01T13:01:18;93439.44;;;10.44;100.00
6136;BME280;24008;42.664;23.372;2023-04-01T13:04:23;93412.09;;;10.30;100.00
6136;BME280;24008;42.664;23.372;2023-04-01T13:07:06;93475.53;;;10.64;100.00
6136;BME280;24008;42.664;23.372;2023-04-01T13:09:45;93433.06;;;10.63;100.00
6136;BME280;24008;42.664;23.372;2023-04-01T13:12:36;93432.88;;;10.64;100.00
6136;BME280;24008;42.664;23.372;2023-04-01T13:15:14;93428.75;;;10.63;100.00
6136;BME280;24008;42.664;23.372;2023-04-01T13:17:50;93398.53;;;10.67;100.00
6136;BME280;24008;42.664;23.372;2023-04-01T13:20:28;93390.00;;;10.74;98.41
6136;BME280;24008;42.664;23.372;2023-04-01T13:23:06;93349.72;;;10.62;92.60
6136;BME280;24008;42.664;23.372;2023-04-01T13:25:40;93381.56;;;11.03;91.98
6136;BME280;24008;42.664;23.372;2023-04-01T13:28:16;93388.78;;;11.29;90.05
6136;BME280;24008;42.664;23.372;2023-04-01T13:30:48;93371.03;;;11.57;88.57
6136;BME280;24008;42.664;23.372;2023-04-01T13:33:22;93322.88;;;11.46;84.77
6136;BME280;24008;42.664;23.372;2023-04-01T13:36:03;93373.00;;;12.12;87.22
6136;BME280;24008;42.664;23.372;2023-04-01T13:38:48;93344.97;;;12.32;90.14
6136;BME280;24008;42.664;23.372;2023-04-01T13:41:27;93354.03;;;12.28;88.43
6136;BME280;24008;42.664;23.372;2023-04-01T13:44:00;93260.84;;;11.80;88.67
6136;BME280;24008;42.664;23.372;2023-04-01T13:46:43;93342.59;;;12.52;87.70
6136;BME280;24008;42.664;23.372;2023-04-01T13:49:48;93299.38;;;12.49;87.00
6136;BME280;24008;42.664;23.372;2023-04-01T13:52:46;93236.81;;;12.30;84.12
6136;BME280;24008;42.664;23.372;2023-04-01T13:55:26;93229.47;;;12.27;79.28
6136;BME280;24008;42.664;23.372;2023-04-01T13:58:21;93301.59;;;12.93;78.26
6136;BME280;24008;42.664;23.372;2023-04-01T14:01:04;93248.44;;;12.67;77.42
6136;BME280;24008;42.664;23.372;2023-04-01T14:04:03;93282.31;;;12.97;75.48
6136;BME280;24008;42.664;23.372;2023-04-01T14:06:52;93220.63;;;12.64;74.33
6136;BME280;24008;42.664;23.372;2023-04-01T14:09:47;93204.66;;;12.62;75.46
6136;BME280;24008;42.664;23.372;2023-04-01T14:12:26;93314.03;;;13.24;78.31
6136;BME280;24008;42.664;23.372;2023-04-01T14:15:07;93240.00;;;12.73;79.20
6136;BME280;24008;42.664;23.372;2023-04-01T14:18:15;93240.78;;;12.74;79.97
6136;BME280;24008;42.664;23.372;2023-04-01T14:20:48;93288.25;;;13.04;80.61
6136;BME280;24008;42.664;23.372;2023-04-01T14:23:52;93284.25;;;12.88;80.96
6136;BME280;24008;42.664;23.372;2023-04-01T14:29:29;93285.41;;;12.23;82.57
6136;BME280;24008;42.664;23.372;2023-04-01T14:32:11;93222.31;;;11.67;84.57
6136;BME280;24008;42.664;23.372;2023-04-01T14:34:52;93140.88;;;11.28;86.71
6136;BME280;24008;42.664;23.372;2023-04-01T14:40:24;93270.28;;;12.29;87.31
6136;BME280;24008;42.664;23.372;2023-04-01T14:43:07;93266.31;;;12.26;86.44
6136;BME280;24008;42.664;23.372;2023-04-01T14:45:49;93280.84;;;12.47;85.57
6136;BME280;24008;42.664;23.372;2023-04-01T14:48:25;93108.63;;;11.54;84.99
6136;BME280;24008;42.664;23.372;2023-04-01T14:50:57;93276.66;;;12.74;84.41
6136;BME280;24008;42.664;23.372;2023-04-01T14:53:34;93224.84;;;12.44;83.44
6136;BME280;24008;42.664;23.372;2023-04-01T14:56:04;93275.72;;;12.81;83.49
6136;BME280;24008;42.664;23.372;2023-04-01T14:58:42;93201.56;;;12.39;81.53
6136;BME280;24008;42.664;23.372;2023-04-01T15:01:31;93275.56;;;12.89;80.99
6136;BME280;24008;42.664;23.372;2023-04-01T15:07:09;93284.44;;;12.93;81.11